Addison, TX

11:27 AM CDT on October 25, 2014 (GMT -0500)
Fairways of Bent Tree | Change Station
CLOSE
Current Station
Personal Weather Station
Location: Dallas, TX
Elevation: 584 ft
Nearby Weather Stations

Elev 584 ft 32.97 °N, 96.81 °W | Updated 2 seconds ago

Clear
Clear
87.0 °F
Feels Like 89 °F
N
1.6
Wind Variable Wind from SE
Gusts 3.8 mph

Today
High -- | Low -- °F
--% Chance of Precip.
Yesterday
High -- | Low -- °F
Precip. -- in
7:39 AM 6:42 PM
Waxing Crescent, 3% visible
Pressure 30.15 in
Visibility 13.0 miles
Clouds Clear
Heat Index 89 °F
Dew Point 66 °F
Humidity 50%
Rainfall 0.00 in
Snow Depth Not available.
UV 4 out of 12
Pollen 5.20 out of 12
Ozone Good
PM2.5 Moderate
Flu Activity Local Activity
METAR KADS 251547Z 19008KT 13SM SKC 24/15 A3015

More Conditions Fewer Conditions

Pressure 30.15 in
Visibility 13.0 miles
Clouds Clear
Heat Index 89 °F
Dew Point 66 °F
Humidity 50%
Rainfall 0.00 in
Snow Depth Not available.
UV 4 out of 12
Pollen 5.20 out of 12
Ozone Good
PM2.5 Moderate
Flu Activity Local Activity
METAR KADS 251547Z 19008KT 13SM SKC 24/15 A3015

More Conditions Fewer Conditions

10-Day Weather Forecast

Almanac

Astronomy

Oct. 25, 2014 Rise Set
Actual Time 7:39 AM CDT 6:42 PM CDT
Civil Twilight 7:14 AM CDT 7:08 PM CDT
Nautical Twilight 6:45 AM CDT 7:36 PM CDT
Astronomical Twilight 6:16 AM CDT 8:05 PM CDT
Moon 9:15 AM CDT 8:11 PM CDT
Length of Visible Light 11h 53m
Length of Day
11h 03m
Tomorrow will be 1m 52s shorter.
Waxing Crescent, 3% of the Moon is Illuminated
Today
Waxing Crescent
Oct 30
First Quarter
Nov 6
Full
Nov 14
Last Quarter
Nov 22
New

Today's Extremes

State Highs State Lows

Community

WunderPhotos

Upload Photos

1,764,890 photos uploaded!

Nearby

Air Quality

  Air Quality AQ Index Pollutant
Yesterday Moderate
PM2.5
Yesterday Moderate
OZONE
Current Moderate
PM2.5
Current Good
OZONE
Saturday Moderate
OZONE
Saturday Good
PM10
Sunday Moderate
OZONE
Sunday Good
PM10
Monday Good
OZONE
Monday Good
PM10
Tuesday Good
OZONE
Tuesday Good
PM10

Snow Depth

Station Depth Elevation
No new snow has been reported.

Earthquake Activity

City Distance Mag. Time & Date
No recent earthquake activity has been reported nearby.
Minimum magnitude displayed is 2.5.

Coastal Water Temperatures

Place Temperature
No Stations Reporting

Nearby Weather Stations